createdAt,value
2019-02-17T00:01:52.574Z,98.39
2019-02-17T00:06:48.799Z,98.42
2019-02-17T00:11:46.894Z,98.87
2019-02-17T00:16:42.887Z,99.30
2019-02-17T00:21:38.783Z,100.00
2019-02-17T00:26:35.603Z,99.42
2019-02-17T00:31:31.666Z,99.43
2019-02-17T00:36:30.683Z,99.56
2019-02-17T00:41:26.547Z,99.04
2019-02-17T00:46:22.413Z,98.83
2019-02-17T00:51:18.396Z,99.66
2019-02-17T00:56:14.256Z,99.75
2019-02-17T01:01:12.042Z,100.00
2019-02-17T01:06:08.475Z,99.10
2019-02-17T01:11:04.537Z,99.56
2019-02-17T01:16:00.516Z,98.78
2019-02-17T01:20:56.392Z,98.79
2019-02-17T01:25:52.411Z,99.79
2019-02-17T01:30:48.346Z,99.70
2019-02-17T01:35:44.246Z,99.09
2019-02-17T01:40:40.154Z,99.66
2019-02-17T01:45:36.136Z,100.00
2019-02-17T01:50:32.059Z,100.00
2019-02-17T01:55:28.529Z,100.00
2019-02-17T02:00:25.928Z,100.00
2019-02-17T02:05:21.931Z,100.00
2019-02-17T02:10:17.869Z,96.67
2019-02-17T02:15:14.103Z,98.94
2019-02-17T02:20:17.527Z,99.17
2019-02-17T02:25:13.880Z,99.65
2019-02-17T02:30:14.992Z,99.92
2019-02-17T02:35:10.919Z,100.00
2019-02-17T02:40:07.413Z,99.77
2019-02-17T02:45:03.368Z,98.54
2019-02-17T02:49:59.280Z,99.21
2019-02-17T02:54:55.677Z,100.00
2019-02-17T02:59:52.667Z,100.00
2019-02-17T03:04:48.779Z,99.73
2019-02-17T03:09:44.918Z,99.74
2019-02-17T03:14:40.793Z,97.93
2019-02-17T03:19:36.671Z,98.35
2019-02-17T03:24:32.844Z,99.30
2019-02-17T03:29:29.013Z,99.87
2019-02-17T03:34:24.890Z,99.33
2019-02-17T03:39:20.693Z,100.00
2019-02-17T03:44:16.756Z,100.00
2019-02-17T03:49:12.608Z,100.00
2019-02-17T03:54:08.528Z,100.00
2019-02-17T03:59:07.828Z,98.81
2019-02-17T04:04:06.292Z,98.95
2019-02-17T04:09:02.371Z,99.20
2019-02-17T04:13:58.782Z,99.21
2019-02-17T04:18:54.897Z,100.00
2019-02-17T04:23:50.911Z,100.00
2019-02-17T04:28:46.865Z,99.48
2019-02-17T04:33:44.960Z,99.69
2019-02-17T04:38:40.834Z,97.88
2019-02-17T04:43:36.746Z,99.34
2019-02-17T04:48:33.031Z,99.54
2019-02-17T04:53:32.026Z,98.87
2019-02-17T04:58:28.134Z,98.13
2019-02-17T05:03:24.243Z,98.11
2019-02-17T05:08:21.266Z,99.21
2019-02-17T05:13:20.425Z,99.77
2019-02-17T05:18:17.661Z,100.00
2019-02-17T05:23:13.647Z,99.82
2019-02-17T05:28:11.885Z,100.00
2019-02-17T05:33:07.828Z,100.00
2019-02-17T05:38:03.737Z,100.00
2019-02-17T05:42:59.661Z,100.00
2019-02-17T05:47:55.543Z,100.00
2019-02-17T05:52:51.411Z,100.00
2019-02-17T05:57:47.459Z,100.00
2019-02-17T06:03:04.658Z,100.00
2019-02-17T06:08:05.661Z,100.00
2019-02-17T06:13:01.529Z,100.00
2019-02-17T06:17:57.504Z,100.00
2019-02-17T06:23:22.814Z,100.00
2019-02-17T06:28:21.291Z,100.00
2019-02-17T06:33:17.231Z,100.00
2019-02-17T06:38:13.151Z,100.00
2019-02-17T06:43:09.375Z,100.00
2019-02-17T06:48:05.248Z,100.00
2019-02-17T06:53:01.139Z,100.00
2019-02-17T06:57:57.245Z,100.00
2019-02-17T07:02:53.244Z,100.00
2019-02-17T07:07:49.139Z,100.00
2019-02-17T07:12:45.026Z,100.00
2019-02-17T07:17:40.904Z,100.00
2019-02-17T07:22:36.810Z,100.00
2019-02-17T07:27:32.728Z,100.00
2019-02-17T07:32:28.749Z,100.00
2019-02-17T07:37:33.133Z,100.00
2019-02-17T07:42:22.550Z,100.00
2019-02-17T07:47:18.517Z,100.00
2019-02-17T07:52:14.505Z,100.00
2019-02-17T07:57:10.550Z,100.00
2019-02-17T08:02:06.976Z,100.00
2019-02-17T08:07:02.867Z,100.00
2019-02-17T08:12:29.146Z,100.00
2019-02-17T08:17:48.654Z,100.00
2019-02-17T08:23:14.561Z,100.00
2019-02-17T08:28:17.465Z,100.00
2019-02-17T08:33:13.213Z,100.00
2019-02-17T08:38:23.356Z,100.00
2019-02-17T08:43:19.344Z,100.00
2019-02-17T08:48:27.970Z,100.00
2019-02-17T08:53:23.948Z,100.00
2019-02-17T08:58:19.888Z,100.00
2019-02-17T09:03:16.033Z,100.00
2019-02-17T09:08:12.463Z,100.00
2019-02-17T09:13:08.503Z,100.00
2019-02-17T09:18:04.982Z,100.00
2019-02-17T09:23:02.847Z,100.00
2019-02-17T09:28:00.450Z,100.00
2019-02-17T09:32:56.521Z,100.00
2019-02-17T09:37:52.712Z,100.00
2019-02-17T09:42:48.645Z,100.00
2019-02-17T09:47:44.465Z,100.00
2019-02-17T09:52:40.696Z,100.00
2019-02-17T09:57:36.793Z,100.00
2019-02-17T10:02:32.913Z,100.00
2019-02-17T10:07:28.824Z,100.00
2019-02-17T10:12:24.920Z,99.42
2019-02-17T10:17:21.067Z,99.98
2019-02-17T10:22:18.537Z,100.00
2019-02-17T10:27:14.587Z,100.00
2019-02-17T10:32:10.468Z,100.00
2019-02-17T10:37:06.537Z,100.00
2019-02-17T10:42:02.465Z,95.77
2019-02-17T10:46:58.489Z,94.51
2019-02-17T10:51:54.640Z,91.43
2019-02-17T10:56:52.486Z,89.22
2019-02-17T11:01:48.001Z,95.00
2019-02-17T11:06:46.871Z,95.51
2019-02-17T11:11:42.952Z,92.72
2019-02-17T11:16:39.457Z,91.99
2019-02-17T11:21:35.648Z,91.52
2019-02-17T11:26:31.588Z,93.88
2019-02-17T11:31:27.670Z,93.62
2019-02-17T11:36:23.724Z,92.01
2019-02-17T11:41:19.518Z,88.41
2019-02-17T11:46:15.372Z,85.72
2019-02-17T11:51:11.540Z,79.51
2019-02-17T11:56:07.382Z,76.84
2019-02-17T12:01:05.298Z,72.08
2019-02-17T12:06:00.747Z,72.52
2019-02-17T12:11:02.932Z,70.39
2019-02-17T12:15:58.811Z,70.05
2019-02-17T12:21:10.482Z,67.89
2019-02-17T12:26:35.637Z,66.91
2019-02-17T12:31:35.711Z,62.19
2019-02-17T12:36:35.846Z,60.05
2019-02-17T12:41:33.220Z,60.23
2019-02-17T12:46:29.092Z,60.25
2019-02-17T12:51:25.277Z,58.33
2019-02-17T12:56:21.345Z,60.28
2019-02-17T13:01:17.489Z,54.72
2019-02-17T13:06:34.085Z,55.22
2019-02-17T13:11:35.678Z,56.77
2019-02-17T13:22:35.420Z,57.36
2019-02-17T13:33:25.983Z,56.43
2019-02-17T13:38:37.073Z,54.54
2019-02-17T13:49:34.028Z,57.14
2019-02-17T13:54:35.924Z,60.48
2019-02-17T14:04:48.074Z,67.18
2019-02-17T14:09:45.529Z,66.32
2019-02-17T14:14:41.520Z,64.50
2019-02-17T14:19:37.300Z,64.46
2019-02-17T14:24:33.137Z,65.36
2019-02-17T14:29:28.887Z,64.75
2019-02-17T14:34:26.290Z,63.65
2019-02-17T14:39:22.096Z,61.25
2019-02-17T14:44:17.922Z,63.08
2019-02-17T14:49:13.863Z,62.79
2019-02-17T14:54:13.628Z,63.33
2019-02-17T14:59:09.450Z,62.87
2019-02-17T15:04:08.776Z,63.11
2019-02-17T15:09:03.085Z,63.12
2019-02-17T15:13:58.868Z,61.32
2019-02-17T15:18:54.706Z,61.09
2019-02-17T15:23:52.225Z,63.62
2019-02-17T15:28:51.246Z,65.46
2019-02-17T15:33:45.880Z,65.91
2019-02-17T15:38:41.809Z,66.53
2019-02-17T15:43:37.681Z,66.81
2019-02-17T15:48:33.645Z,68.62
2019-02-17T15:53:31.074Z,69.06
2019-02-17T15:58:28.790Z,68.49
2019-02-17T16:03:26.267Z,69.97
2019-02-17T16:08:22.293Z,70.50
2019-02-17T16:13:18.234Z,71.93
2019-02-17T16:18:14.183Z,74.08
2019-02-17T16:23:10.029Z,76.49
2019-02-17T16:28:09.040Z,78.09
2019-02-17T16:33:05.083Z,81.12
2019-02-17T16:38:01.262Z,83.14
2019-02-17T16:42:57.325Z,86.77
2019-02-17T16:47:53.409Z,88.79
2019-02-17T16:53:02.979Z,91.06
2019-02-17T16:57:59.157Z,92.65
2019-02-17T17:02:55.235Z,93.59
2019-02-17T17:07:51.571Z,95.86
2019-02-17T17:12:47.449Z,96.75
2019-02-17T17:17:43.363Z,96.96
2019-02-17T17:22:39.545Z,97.02
2019-02-17T17:27:35.443Z,97.46
2019-02-17T17:32:36.861Z,98.01
2019-02-17T17:37:33.122Z,97.65
2019-02-17T17:42:29.243Z,98.42
2019-02-17T17:47:25.247Z,98.97
2019-02-17T17:52:28.098Z,99.07
2019-02-17T17:57:24.254Z,100.00
2019-02-17T18:02:20.245Z,100.00
2019-02-17T18:07:16.167Z,100.00
2019-02-17T18:12:12.335Z,100.00
2019-02-17T18:17:08.324Z,100.00
2019-02-17T18:22:04.540Z,100.00
2019-02-17T18:27:00.474Z,100.00
2019-02-17T18:31:57.008Z,100.00
2019-02-17T18:36:53.597Z,100.00
2019-02-17T18:41:53.698Z,100.00
2019-02-17T18:46:51.059Z,100.00
2019-02-17T18:51:47.075Z,100.00
2019-02-17T18:56:43.101Z,99.80
2019-02-17T19:01:39.080Z,100.00
2019-02-17T19:06:35.051Z,100.00
2019-02-17T19:11:31.156Z,100.00
2019-02-17T19:16:27.225Z,100.00
2019-02-17T19:21:27.271Z,100.00
2019-02-17T19:26:22.844Z,100.00
2019-02-17T19:31:18.845Z,100.00
2019-02-17T19:36:15.281Z,99.84
2019-02-17T19:41:11.468Z,98.92
2019-02-17T19:46:10.016Z,98.08
2019-02-17T19:51:06.169Z,98.56
2019-02-17T19:56:02.249Z,97.15
2019-02-17T20:00:58.260Z,97.50
2019-02-17T20:06:02.474Z,97.39
2019-02-17T20:10:58.588Z,96.46
2019-02-17T20:15:54.736Z,95.67
2019-02-17T20:20:50.932Z,96.73
2019-02-17T20:25:46.949Z,95.43
2019-02-17T20:30:43.126Z,94.36
2019-02-17T20:35:39.176Z,94.57
2019-02-17T20:40:35.549Z,94.67
2019-02-17T20:45:31.735Z,94.04
2019-02-17T20:50:27.794Z,93.75
2019-02-17T20:55:26.523Z,95.29
2019-02-17T21:00:24.747Z,94.37
2019-02-17T21:05:20.958Z,94.47
2019-02-17T21:10:17.287Z,93.94
2019-02-17T21:15:13.810Z,93.44
2019-02-17T21:20:10.122Z,93.18
2019-02-17T21:25:06.436Z,93.30
2019-02-17T21:30:02.382Z,94.65
2019-02-17T21:34:58.449Z,95.28
2019-02-17T21:39:54.366Z,96.50
2019-02-17T21:44:50.265Z,96.61
2019-02-17T21:49:46.336Z,96.69
2019-02-17T22:00:10.221Z,95.55
2019-02-17T22:05:06.420Z,96.71
2019-02-17T22:10:04.355Z,97.12
2019-02-17T22:15:34.146Z,97.46
2019-02-17T22:20:30.027Z,97.88
2019-02-17T22:25:26.034Z,97.51
2019-02-17T22:30:22.093Z,97.32
2019-02-17T22:35:18.043Z,98.15
2019-02-17T22:40:14.350Z,98.67
2019-02-17T22:45:10.754Z,98.09
2019-02-17T22:50:07.692Z,98.61
2019-02-17T22:55:03.740Z,97.63
2019-02-17T22:59:59.836Z,97.90
2019-02-17T23:04:55.778Z,98.39
2019-02-17T23:09:51.741Z,98.77
2019-02-17T23:14:47.654Z,99.80
2019-02-17T23:19:43.682Z,99.57
2019-02-17T23:24:42.500Z,99.58
2019-02-17T23:29:38.346Z,97.97
2019-02-17T23:34:36.986Z,97.62
2019-02-17T23:39:32.896Z,97.40
2019-02-17T23:44:28.882Z,99.10
2019-02-17T23:49:27.805Z,99.51
2019-02-17T23:54:23.763Z,99.39
2019-02-17T23:59:20.995Z,99.77
